Time;durP1;ratioP1;P1;durP2;ratioP2;P2;SDS_P1;SDS_P2;PMS_P1;PMS_P2;Temp;Humidity;BMP_temperature;BMP_pressure;BME280_temperature;BME280_humidity;BME280_pressure;Samples;Min_cycle;Max_cycle;Signal;HPM_P1;HPM_P2
2021/09/26 00:01:21;;;;;;;16.85;13.52;;;;;;;14.75;91.34;101405.28;5056149;28;20040;-35
2021/09/26 00:03:46;;;;;;;17.70;13.20;;;;;;;14.70;90.95;101399.75;5056466;28;20100;-35
2021/09/26 00:06:12;;;;;;;16.85;13.02;;;;;;;14.82;91.09;101405.94;5055743;28;20440;-35
2021/09/26 00:08:37;;;;;;;16.42;13.55;;;;;;;14.75;91.32;101406.13;5056035;28;20411;-35
2021/09/26 00:11:06;;;;;;;19.15;14.18;;;;;;;14.69;91.33;101407.09;5055931;28;20408;-35
2021/09/26 00:13:39;;;;;;;17.52;13.75;;;;;;;14.66;91.32;101405.69;5055786;28;20021;-35
2021/09/26 00:16:07;;;;;;;16.13;12.48;;;;;;;14.59;91.71;101385.97;5056179;28;20024;-35
2021/09/26 00:18:33;;;;;;;19.67;13.98;;;;;;;14.60;91.47;101393.06;5055484;28;20063;-35
2021/09/26 00:20:59;;;;;;;17.63;13.50;;;;;;;14.51;91.43;101380.91;5054575;28;20120;-35
2021/09/26 00:23:25;;;;;;;20.60;13.60;;;;;;;14.47;90.97;101378.88;5055821;28;20108;-35
2021/09/26 00:25:52;;;;;;;19.25;13.43;;;;;;;14.47;91.65;101381.59;5056474;28;20086;-35
2021/09/26 00:28:19;;;;;;;23.38;14.25;;;;;;;14.50;91.90;101389.31;5055685;28;20026;-35
2021/09/26 00:30:45;;;;;;;17.63;13.23;;;;;;;14.45;91.88;101379.13;5054251;28;20068;-35
2021/09/26 00:33:10;;;;;;;17.63;12.63;;;;;;;14.29;91.42;101374.47;5055580;28;20416;-35
2021/09/26 00:35:36;;;;;;;15.83;11.73;;;;;;;14.43;91.72;101392.16;5055508;28;20024;-35
2021/09/26 00:38:01;;;;;;;18.92;14.23;;;;;;;14.27;92.28;101376.59;5055269;28;20032;-35
2021/09/26 00:40:27;;;;;;;17.42;13.20;;;;;;;14.29;91.90;101383.44;5055251;28;20029;-35
2021/09/26 00:42:52;;;;;;;18.83;13.00;;;;;;;14.33;91.82;101390.06;5055610;28;20095;-35
2021/09/26 00:45:17;;;;;;;17.40;12.70;;;;;;;14.35;92.15;101395.28;5055272;28;20017;-36
2021/09/26 00:47:43;;;;;;;17.40;13.45;;;;;;;14.27;92.47;101372.00;5055696;28;20025;-35
2021/09/26 00:50:09;;;;;;;17.63;13.48;;;;;;;14.34;92.88;101385.44;5055436;28;20091;-35
2021/09/26 00:52:37;;;;;;;17.75;13.77;;;;;;;14.37;93.17;101388.50;5054452;28;20017;-35
2021/09/26 00:55:04;;;;;;;22.95;14.93;;;;;;;14.25;93.57;101376.88;5055569;28;20025;-35
2021/09/26 00:57:29;;;;;;;16.73;12.95;;;;;;;14.39;93.70;101393.69;5055076;28;20449;-35
2021/09/26 00:59:58;;;;;;;19.08;13.93;;;;;;;14.43;93.13;101386.69;5054953;28;20021;-35
2021/09/26 01:02:23;;;;;;;17.95;13.63;;;;;;;14.18;93.61;101357.94;5055382;28;20024;-36
2021/09/26 01:04:48;;;;;;;17.40;13.50;;;;;;;14.49;92.93;101388.47;5055632;28;20096;-35
2021/09/26 01:07:31;;;;;;;17.58;13.27;;;;;;;14.51;92.79;101388.25;5055583;28;20036;-35
2021/09/26 01:10:14;;;;;;;16.45;13.45;;;;;;;14.38;92.67;101367.56;5053336;28;20424;-35
2021/09/26 01:12:50;;;;;;;18.67;13.85;;;;;;;14.45;92.85;101381.88;5055088;28;20025;-35
2021/09/26 01:15:15;;;;;;;18.67;13.40;;;;;;;14.43;92.75;101382.09;5054278;28;20025;-35
2021/09/26 01:17:51;;;;;;;16.90;12.80;;;;;;;14.43;92.23;101376.63;5053861;28;20086;-35
2021/09/26 01:20:32;;;;;;;22.50;13.60;;;;;;;14.45;92.92;101379.13;5055132;28;20318;-35
2021/09/26 01:23:03;;;;;;;19.90;13.15;;;;;;;14.44;92.14;101372.03;5055138;28;20020;-35
2021/09/26 01:25:59;;;;;;;15.85;12.98;;;;;;;14.37;92.60;101360.47;5054556;28;20028;-35
2021/09/26 01:29:02;;;;;;;21.45;13.68;;;;;;;14.41;92.54;101369.81;5054805;28;20310;-35
2021/09/26 01:31:32;;;;;;;18.45;12.45;;;;;;;14.37;92.52;101372.19;5054429;28;20334;-35
2021/09/26 01:34:03;;;;;;;17.05;12.80;;;;;;;14.37;92.43;101374.09;5054616;28;20021;-35
2021/09/26 01:36:31;;;;;;;15.57;12.05;;;;;;;14.35;92.11;101368.91;5054297;28;20051;-35
2021/09/26 01:39:02;;;;;;;16.42;13.10;;;;;;;14.29;91.78;101374.47;5054632;28;20028;-35
2021/09/26 01:41:40;;;;;;;16.10;12.63;;;;;;;14.08;92.35;101332.44;5054287;28;20021;-35
2021/09/26 01:44:11;;;;;;;18.83;12.93;;;;;;;14.23;92.81;101359.94;5054696;28;20017;-35
2021/09/26 01:46:41;;;;;;;17.73;13.43;;;;;;;14.20;92.77;101356.88;5052871;28;20021;-35
2021/09/26 01:49:14;;;;;;;18.48;12.88;;;;;;;14.23;92.51;101351.78;5054337;28;20025;-35
2021/09/26 01:51:42;;;;;;;15.65;12.43;;;;;;;14.23;92.27;101365.38;5054006;28;20031;-35
2021/09/26 01:54:13;;;;;;;19.85;13.68;;;;;;;14.15;92.78;101357.59;5053749;28;20024;-35
2021/09/26 01:56:42;;;;;;;16.35;13.30;;;;;;;14.18;92.70;101355.22;5054713;28;20151;-35
2021/09/26 01:59:10;;;;;;;17.48;12.70;;;;;;;14.10;92.33;101352.06;5053823;28;20471;-35
2021/09/26 02:01:38;;;;;;;20.30;13.88;;;;;;;14.02;93.63;101350.56;5053937;28;20033;-35
2021/09/26 02:04:05;;;;;;;19.70;14.63;;;;;;;13.94;94.57;101350.94;5053520;28;20476;-35
2021/09/26 02:06:30;;;;;;;23.38;15.48;;;;;;;13.89;94.90;101343.50;5054099;28;20028;-35
2021/09/26 02:08:56;;;;;;;19.05;14.27;;;;;;;13.91;94.37;101344.09;5053482;28;20017;-35
2021/09/26 02:11:22;;;;;;;18.05;13.10;;;;;;;13.89;94.57;101350.84;5053751;28;20029;-35
2021/09/26 02:13:50;;;;;;;19.00;14.20;;;;;;;13.90;94.46;101342.44;5053666;28;20025;-35
2021/09/26 02:16:16;;;;;;;19.80;14.70;;;;;;;13.95;94.98;101349.84;5054322;28;20027;-35
2021/09/26 02:18:44;;;;;;;17.38;13.77;;;;;;;14.01;94.35;101351.63;5053305;28;20155;-35
2021/09/26 02:21:11;;;;;;;17.15;14.07;;;;;;;14.05;94.72;101349.25;5054018;28;20066;-35
2021/09/26 02:23:37;;;;;;;18.23;14.30;;;;;;;14.03;94.19;101340.50;5053169;28;20503;-35
2021/09/26 02:26:06;;;;;;;18.52;13.98;;;;;;;14.04;94.22;101323.94;5053673;28;20024;-35
2021/09/26 02:28:32;;;;;;;18.98;15.10;;;;;;;14.11;94.31;101340.97;5052001;28;20040;-35
2021/09/26 02:30:58;;;;;;;20.88;14.52;;;;;;;14.11;93.73;101343.69;5053760;28;20170;-35
2021/09/26 02:33:23;;;;;;;;;;;;;;;14.25;92.91;101346.09;5053748;28;20021;-35
2021/09/26 02:35:48;;;;;;;17.80;14.27;;;;;;;14.25;93.55;101349.66;5053325;28;20356;-35
2021/09/26 02:38:14;;;;;;;17.75;13.68;;;;;;;14.21;93.92;101350.38;5053579;28;20028;-35
2021/09/26 02:40:50;;;;;;;16.85;13.73;;;;;;;14.25;93.50;101351.53;5053229;28;20100;-35
2021/09/26 02:43:26;;;;;;;17.08;13.05;;;;;;;14.21;92.93;101336.78;5053725;28;20090;-35
2021/09/26 02:45:59;;;;;;;17.35;13.60;;;;;;;14.26;93.05;101347.75;5053494;28;20075;-35
2021/09/26 02:48:29;;;;;;;16.88;12.82;;;;;;;14.28;93.67;101345.63;5053712;28;20021;-35
2021/09/26 02:50:56;;;;;;;16.58;13.23;;;;;;;14.17;93.42;101347.31;5053104;28;20078;-35
2021/09/26 02:53:22;;;;;;;17.20;12.35;;;;;;;14.32;93.39;101360.38;5053118;28;20342;-35
2021/09/26 02:55:50;;;;;;;17.52;13.35;;;;;;;14.33;93.39;101362.84;5053500;28;20025;-35
2021/09/26 02:58:15;;;;;;;19.40;14.52;;;;;;;14.38;93.24;101362.94;5053228;28;20021;-35
2021/09/26 03:00:43;;;;;;;17.35;13.70;;;;;;;14.35;93.46;101363.44;5052996;28;20040;-35
2021/09/26 03:03:13;;;;;;;16.45;12.98;;;;;;;14.38;93.19;101360.22;5052906;28;20453;-35
2021/09/26 03:05:42;;;;;;;16.92;13.55;;;;;;;14.35;93.51;101351.75;5052706;28;20061;-35
2021/09/26 03:08:08;;;;;;;16.15;12.82;;;;;;;14.40;93.01;101354.56;5053032;28;20036;-35
2021/09/26 03:10:34;;;;;;;;;;;;;;;14.52;92.59;101346.34;5053617;28;20035;-35
2021/09/26 03:13:00;;;;;;;15.50;13.38;;;;;;;14.31;93.00;101331.53;5052717;28;19905;-35
2021/09/26 03:15:26;;;;;;;18.23;12.68;;;;;;;14.36;92.83;101334.34;5053781;28;20380;-35
2021/09/26 03:17:51;;;;;;;18.45;14.93;;;;;;;14.35;93.20;101336.25;5056972;28;20107;-35
2021/09/26 03:20:17;;;;;;;17.40;13.37;;;;;;;14.45;93.38;101351.09;5055937;28;20041;-35
2021/09/26 03:22:43;;;;;;;18.63;13.80;;;;;;;14.37;93.40;101330.56;5056009;28;20219;-35
2021/09/26 03:25:08;;;;;;;20.13;13.40;;;;;;;14.50;92.77;101343.88;5056662;28;20028;-35
2021/09/26 03:27:34;;;;;;;18.25;13.48;;;;;;;14.50;92.92;101343.88;5057317;28;20449;-35
2021/09/26 03:29:59;;;;;;;15.65;13.35;;;;;;;14.49;93.03;101339.50;5057268;28;20331;-35
2021/09/26 03:32:24;;;;;;;16.37;12.80;;;;;;;14.49;93.32;101342.22;5056988;28;20033;-35
2021/09/26 03:34:50;;;;;;;15.63;12.73;;;;;;;14.53;92.11;101348.81;5056619;28;20663;-35
2021/09/26 03:37:15;;;;;;;19.20;14.53;;;;;;;14.50;92.98;101341.16;5056568;28;20251;-35
2021/09/26 03:39:40;;;;;;;16.40;13.43;;;;;;;14.55;92.68;101340.44;5056447;28;20276;-36
2021/09/26 03:42:06;;;;;;;18.55;13.98;;;;;;;14.51;92.73;101333.81;5056569;28;20104;-36
2021/09/26 03:44:32;;;;;;;18.27;14.23;;;;;;;14.55;93.04;101340.44;5056819;28;20052;-35
2021/09/26 03:46:57;;;;;;;21.25;14.30;;;;;;;14.48;92.93;101324.25;5056666;28;20052;-36
2021/09/26 03:49:24;;;;;;;14.88;12.18;;;;;;;14.57;92.91;101339.09;5056384;28;20165;-35
2021/09/26 03:51:50;;;;;;;16.25;13.85;;;;;;;14.55;92.79;101337.72;5056003;28;20032;-36
2021/09/26 03:54:19;;;;;;;16.67;13.25;;;;;;;14.52;92.47;101322.69;5056302;28;20032;-35
2021/09/26 03:56:45;;;;;;;20.20;13.93;;;;;;;14.61;92.75;101337.53;5056716;28;20151;-35
2021/09/26 03:59:11;;;;;;;20.20;14.57;;;;;;;14.56;93.14;101334.75;5056104;28;20100;-35
2021/09/26 04:01:37;;;;;;;17.85;12.88;;;;;;;14.59;92.88;101331.53;5056121;28;20021;-35
2021/09/26 04:04:03;;;;;;;24.50;14.13;;;;;;;14.60;92.58;101329.63;5055932;28;20025;-35
2021/09/26 04:06:28;;;;;;;21.48;15.48;;;;;;;14.56;93.03;101317.59;5056326;28;20028;-35
2021/09/26 04:08:54;;;;;;;16.87;13.17;;;;;;;14.60;93.13;101330.47;5056039;28;20021;-35
2021/09/26 04:11:20;;;;;;;25.20;14.63;;;;;;;14.54;93.08;101323.28;5055746;28;20280;-35
2021/09/26 04:13:46;;;;;;;20.45;14.50;;;;;;;14.59;93.20;101326.09;5056292;28;20274;-35
2021/09/26 04:16:11;;;;;;;24.48;14.68;;;;;;;14.62;93.80;101325.59;5055777;28;20465;-35
2021/09/26 04:18:36;;;;;;;18.63;14.20;;;;;;;14.61;94.06;101332.09;5055698;28;20045;-35
2021/09/26 04:21:02;;;;;;;27.27;15.97;;;;;;;14.54;94.64;101314.25;5056014;28;20282;-35
2021/09/26 04:23:27;;;;;;;27.92;15.02;;;;;;;14.62;94.43;101332.94;5055300;28;20024;-35
2021/09/26 04:25:52;;;;;;;22.87;15.80;;;;;;;14.62;95.14;101330.19;5055477;28;20021;-35
2021/09/26 04:28:18;;;;;;;25.90;16.23;;;;;;;14.65;95.19;101330.53;5055350;28;20267;-35
2021/09/26 04:30:43;;;;;;;22.73;15.03;;;;;;;14.64;95.46;101328.03;5055634;28;20768;-35
2021/09/26 04:33:08;;;;;;;23.15;15.68;;;;;;;14.65;95.29;101335.16;5055838;28;20512;-35
2021/09/26 04:35:34;;;;;;;24.77;15.83;;;;;;;14.62;95.30;101324.75;5055534;28;20093;-35
2021/09/26 04:37:59;;;;;;;17.73;14.00;;;;;;;14.59;95.50;101327.97;5056213;28;20088;-35
2021/09/26 04:40:25;;;;;;;25.20;16.33;;;;;;;14.62;95.72;101331.03;5055486;28;20438;-35
2021/09/26 04:42:50;;;;;;;23.38;16.25;;;;;;;14.53;96.51;101327.06;5056010;28;20068;-35
2021/09/26 04:45:16;;;;;;;24.80;15.88;;;;;;;14.56;96.77;101337.47;5055077;28;20017;-35
2021/09/26 04:47:41;;;;;;;22.00;15.07;;;;;;;14.55;96.94;101335.00;5055843;28;20032;-35
2021/09/26 04:50:07;;;;;;;23.45;15.55;;;;;;;14.54;96.99;101328.72;5054955;28;20052;-35
2021/09/26 04:52:34;;;;;;;24.98;15.43;;;;;;;14.56;96.77;101323.03;5055546;28;20028;-35
2021/09/26 04:55:00;;;;;;;24.63;16.25;;;;;;;14.61;96.50;101321.22;5055220;28;20021;-35
2021/09/26 04:57:25;;;;;;;20.73;15.25;;;;;;;14.60;96.73;101327.75;5055732;28;20024;-35
2021/09/26 04:59:50;;;;;;;22.23;15.55;;;;;;;14.63;97.12;101329.94;5054928;28;20021;-35
2021/09/26 05:02:16;;;;;;;26.67;15.60;;;;;;;14.56;97.04;101310.25;5055045;28;20024;-35
2021/09/26 05:04:41;;;;;;;22.42;15.98;;;;;;;14.62;97.21;101331.03;5054990;28;20358;-35
2021/09/26 05:07:06;;;;;;;25.27;16.53;;;;;;;14.65;97.38;101336.00;5055126;28;20346;-35
2021/09/26 05:09:32;;;;;;;21.63;15.97;;;;;;;14.66;97.66;101334.09;5054895;28;20743;-35
2021/09/26 05:11:57;;;;;;;27.35;16.98;;;;;;;14.65;97.60;101333.25;5055475;28;20485;-35
2021/09/26 05:14:22;;;;;;;22.75;14.98;;;;;;;14.65;97.23;101335.16;5055570;28;20025;-35
2021/09/26 05:16:48;;;;;;;21.08;15.25;;;;;;;14.68;97.70;101337.38;5054486;28;20020;-35
2021/09/26 05:19:14;;;;;;;23.08;14.80;;;;;;;14.68;97.13;101334.66;5054983;28;20073;-35
2021/09/26 05:21:39;;;;;;;26.63;15.55;;;;;;;14.67;97.50;101339.28;5054668;28;20033;-35
2021/09/26 05:24:05;;;;;;;25.03;15.53;;;;;;;14.70;97.53;101340.69;5054301;28;20021;-35
2021/09/26 05:26:30;;;;;;;24.17;15.80;;;;;;;14.69;97.21;101333.59;5055107;28;20248;-35
2021/09/26 05:28:55;;;;;;;22.23;15.43;;;;;;;14.70;97.57;101342.59;5054906;28;20075;-35
2021/09/26 05:31:21;;;;;;;25.38;16.42;;;;;;;14.69;97.57;101333.59;5054971;28;20056;-35
2021/09/26 05:33:46;;;;;;;24.20;14.80;;;;;;;14.72;97.36;101338.53;5054441;28;20453;-35
2021/09/26 05:36:11;;;;;;;21.53;15.37;;;;;;;14.73;97.01;101333.91;5054920;28;20737;-35
2021/09/26 05:38:37;;;;;;;24.63;16.27;;;;;;;14.62;97.68;101324.75;5053360;28;20281;-35
2021/09/26 05:41:03;;;;;;;26.45;17.92;;;;;;;14.66;97.93;101332.19;5054158;28;20031;-35
2021/09/26 05:43:28;;;;;;;29.52;16.13;;;;;;;14.68;98.15;101340.91;5054488;28;20335;-35
2021/09/26 05:45:54;;;;;;;31.02;16.88;;;;;;;14.70;98.10;101337.16;5054335;28;20021;-35
2021/09/26 05:48:19;;;;;;;20.35;15.00;;;;;;;14.75;97.86;101343.50;5054088;28;20132;-35
2021/09/26 05:50:45;;;;;;;31.10;17.33;;;;;;;14.72;97.49;101338.53;5054446;28;20032;-35
2021/09/26 05:53:10;;;;;;;22.95;15.82;;;;;;;14.73;97.52;101339.38;5053924;28;20013;-35
2021/09/26 05:55:36;;;;;;;25.48;15.93;;;;;;;14.62;98.11;101331.03;5054309;28;20025;-35
2021/09/26 05:58:01;;;;;;;25.88;16.75;;;;;;;14.72;98.14;101346.72;5053602;28;20477;-35
2021/09/26 06:00:26;;;;;;;22.70;15.90;;;;;;;14.68;98.13;101340.91;5053717;28;20033;-35
2021/09/26 06:02:52;;;;;;;24.58;16.10;;;;;;;14.66;98.49;101337.63;5053543;28;20348;-35
2021/09/26 06:05:18;;;;;;;26.05;15.63;;;;;;;14.68;98.11;101340.91;5053787;28;20505;-35
2021/09/26 06:07:44;;;;;;;29.00;16.90;;;;;;;14.57;97.52;101322.78;5053870;28;20163;-35
2021/09/26 06:10:10;;;;;;;24.70;16.80;;;;;;;14.62;97.96;101335.66;5053750;28;20374;-35
2021/09/26 06:12:35;;;;;;;23.52;15.77;;;;;;;14.48;97.60;101313.34;5053938;28;20024;-35
2021/09/26 06:15:03;;;;;;;21.38;13.15;;;;;;;14.69;96.94;101339.06;5053397;28;20033;-35
2021/09/26 06:17:29;;;;;;;23.25;15.02;;;;;;;14.52;97.31;101325.41;5053540;28;20032;-35
2021/09/26 06:19:55;;;;;;;24.58;15.52;;;;;;;14.62;97.11;101346.53;5053735;28;20041;-35
2021/09/26 06:22:20;;;;;;;24.37;13.87;;;;;;;14.70;96.71;101358.94;5054089;28;20028;-35
2021/09/26 06:24:47;;;;;;;22.10;15.48;;;;;;;14.67;97.59;101355.59;5053348;28;20095;-35
2021/09/26 06:27:13;;;;;;;27.05;17.20;;;;;;;14.64;97.48;101355.25;5054048;28;20090;-35
2021/09/26 06:29:39;;;;;;;25.35;16.85;;;;;;;14.55;97.92;101338.53;5053264;28;20373;-35
2021/09/26 06:32:05;;;;;;;20.80;14.55;;;;;;;14.64;97.30;101353.41;5053737;28;20033;-35
2021/09/26 06:34:30;;;;;;;22.90;16.73;;;;;;;14.56;97.73;101347.53;5053234;28;20096;-35
2021/09/26 06:36:57;;;;;;;23.73;16.88;;;;;;;14.58;97.40;101346.19;5053291;28;20029;-35
2021/09/26 06:39:22;;;;;;;22.33;16.00;;;;;;;14.62;97.98;101358.25;5053309;28;20013;-35
2021/09/26 06:41:48;;;;;;;21.40;16.37;;;;;;;14.58;98.21;101350.81;5053601;28;20047;-35
2021/09/26 06:44:13;;;;;;;21.13;17.45;;;;;;;14.57;98.25;101354.59;5053330;28;20060;-35
2021/09/26 06:46:39;;;;;;;19.73;15.20;;;;;;;14.55;97.87;101354.88;5053276;28;20035;-35
2021/09/26 06:49:05;;;;;;;25.02;17.50;;;;;;;14.52;98.29;101362.69;5053315;28;20028;-35
2021/09/26 06:51:32;;;;;;;22.27;16.45;;;;;;;14.50;98.42;101353.94;5052618;28;20029;-35
2021/09/26 06:53:57;;;;;;;24.90;17.02;;;;;;;14.57;98.25;101363.59;5053023;28;20025;-35
2021/09/26 06:56:23;;;;;;;25.52;16.60;;;;;;;14.58;98.27;101354.34;5053637;28;20074;-35
2021/09/26 06:58:48;;;;;;;21.55;17.40;;;;;;;14.71;98.71;101371.47;5053258;28;20017;-35
2021/09/26 07:01:14;;;;;;;22.00;15.80;;;;;;;14.71;98.43;101357.84;5053496;28;20441;-35
2021/09/26 07:03:39;;;;;;;21.08;16.20;;;;;;;14.83;97.89;101373.03;5053406;28;20032;-35
2021/09/26 07:06:04;;;;;;;22.75;17.05;;;;;;;14.82;97.75;101365.94;5053639;28;20029;-35
2021/09/26 07:08:31;;;;;;;22.58;16.75;;;;;;;14.92;98.05;101378.91;5052798;28;20021;-35
2021/09/26 07:10:56;;;;;;;20.33;16.52;;;;;;;14.95;97.85;101383.84;5052288;28;20029;-35
2021/09/26 07:13:22;;;;;;;20.92;16.85;;;;;;;15.06;97.63;101380.22;5052754;28;20132;-35
2021/09/26 07:15:47;;;;;;;25.52;18.65;;;;;;;15.16;97.94;101382.28;5053235;28;20171;-35
2021/09/26 07:18:13;;;;;;;25.88;19.50;;;;;;;15.23;97.97;101382.13;5052591;28;20482;-35
2021/09/26 07:20:38;;;;;;;25.23;18.08;;;;;;;15.28;98.10;101383.03;5052387;28;20032;-35
2021/09/26 07:23:04;;;;;;;;;;;;;;;15.41;97.87;101385.38;5053180;28;20126;-35
2021/09/26 07:25:29;;;;;;;23.88;18.30;;;;;;;15.45;98.34;101372.91;5052627;28;20340;-35
2021/09/26 07:27:55;;;;;;;25.10;18.40;;;;;;;15.50;97.98;101377.63;5052678;28;20064;-35
2021/09/26 07:30:21;;;;;;;26.83;18.15;;;;;;;15.60;98.00;101379.66;5052736;28;20025;-35
2021/09/26 07:32:47;;;;;;;22.98;17.00;;;;;;;15.52;98.26;101356.41;5052841;28;20404;-35
2021/09/26 07:35:12;;;;;;;23.98;18.08;;;;;;;15.73;98.33;101392.97;5052233;28;20100;-35
2021/09/26 07:37:38;;;;;;;;;;;;;;;15.83;98.17;101405.91;5052584;28;20051;-35
2021/09/26 07:40:04;;;;;;;24.93;17.47;;;;;;;15.89;98.71;101397.53;5052268;28;19916;-35
2021/09/26 07:42:30;;;;;;;21.25;16.60;;;;;;;15.94;98.98;101394.06;5052829;28;20256;-36
2021/09/26 07:45:00;;;;;;;23.10;16.75;;;;;;;16.06;98.96;101408.41;5051954;28;20374;-35
2021/09/26 07:47:26;;;;;;;23.42;17.52;;;;;;;16.16;99.12;101411.25;5052958;28;20055;-35
2021/09/26 07:49:51;;;;;;;17.85;15.85;;;;;;;16.23;98.96;101405.59;5051624;28;20422;-35
2021/09/26 07:52:16;;;;;;;;;;;;;;;16.36;98.08;101416.13;5052944;28;20100;-35
2021/09/26 07:54:42;;;;;;;21.25;15.60;;;;;;;16.47;97.88;101411.59;5052303;28;20356;-36
2021/09/26 07:57:07;;;;;;;;;;;;;;;16.59;97.88;101408.72;5052789;28;20060;-35
2021/09/26 07:59:32;;;;;;;22.33;16.30;;;;;;;16.66;98.10;101393.78;5052118;28;19975;-35
2021/09/26 08:01:57;;;;;;;21.20;16.67;;;;;;;16.81;98.03;101384.94;5053527;28;20268;-36
2021/09/26 08:04:23;;;;;;;;;;;;;;;16.94;97.90;101394.63;5056398;28;20162;-36
2021/09/26 08:06:48;;;;;;;17.73;15.10;;;;;;;16.97;97.39;101381.25;5056503;28;20355;-35
2021/09/26 08:09:13;;;;;;;17.57;15.73;;;;;;;17.13;97.41;101401.34;5055440;28;20432;-35
2021/09/26 08:11:39;;;;;;;15.60;13.63;;;;;;;17.16;97.05;101398.06;5056274;28;20312;-35
2021/09/26 08:14:04;;;;;;;;;;;;;;;17.31;97.29;101416.50;5056277;28;20021;-35
2021/09/26 08:16:30;;;;;;;17.33;13.95;;;;;;;17.32;96.59;101400.91;5055595;28;20279;-35
2021/09/26 08:18:55;;;;;;;;;;;;;;;17.48;96.55;101411.72;5056023;28;20091;-35
2021/09/26 08:21:20;;;;;;;20.13;13.87;;;;;;;17.55;95.75;101416.94;5055191;28;20070;-35
2021/09/26 08:23:45;;;;;;;;;;;;;;;17.64;95.90;101409.88;5056362;28;20266;-35
2021/09/26 08:26:11;;;;;;;16.17;14.25;;;;;;;17.62;94.88;101406.59;5055975;28;20283;-35
2021/09/26 08:28:36;;;;;;;;;;;;;;;17.78;95.35;101418.47;5055484;28;20028;-35
2021/09/26 08:31:02;;;;;;;18.57;14.90;;;;;;;17.85;94.51;101419.06;5055517;28;20316;-35
2021/09/26 08:33:27;;;;;;;;;;;;;;;17.95;94.77;101421.03;5055311;28;20645;-35
2021/09/26 08:35:53;;;;;;;16.67;14.88;;;;;;;17.99;94.25;101422.13;5055152;28;19912;-35
2021/09/26 08:38:18;;;;;;;;;;;;;;;18.10;94.20;101425.75;5056098;28;20087;-35
2021/09/26 08:40:43;;;;;;;16.20;14.55;;;;;;;18.17;93.90;101438.09;5054920;28;19908;-35
2021/09/26 08:43:09;;;;;;;;;;;;;;;18.23;93.88;101434.28;5055464;28;20040;-35
2021/09/26 08:45:39;;;;;;;17.77;15.80;;;;;;;18.26;92.50;101428.28;5055270;28;19915;-35
2021/09/26 08:48:08;;;;;;;16.38;14.30;;;;;;;18.31;92.21;101426.66;5055267;28;20028;-35
2021/09/26 08:50:34;;;;;;;18.98;16.08;;;;;;;18.27;92.43;101420.91;5054881;28;20451;-35
2021/09/26 08:53:00;;;;;;;17.00;15.23;;;;;;;18.40;92.53;101433.28;5054601;28;20446;-35
2021/09/26 08:55:25;;;;;;;;;;;;;;;18.47;92.93;101434.66;5055020;28;20036;-35
2021/09/26 08:57:50;;;;;;;17.10;14.10;;;;;;;18.49;91.25;101435.19;5054313;28;19909;-35
2021/09/26 09:00:16;;;;;;;;;;;;;;;18.65;91.88;101435.25;5054543;28;20275;-35
2021/09/26 09:02:45;;;;;;;17.80;14.93;;;;;;;18.77;90.52;101417.47;5054819;28;19913;-35
2021/09/26 09:05:28;;;;;;;16.67;14.43;;;;;;;18.97;90.32;101432.31;5054496;28;20025;-35
2021/09/26 09:08:03;;;;;;;17.17;15.38;;;;;;;19.06;89.00;101418.88;5054324;28;20369;-35
2021/09/26 09:10:47;;;;;;;17.10;14.68;;;;;;;19.12;88.35;101429.56;5054186;28;20029;-35
2021/09/26 09:13:18;;;;;;;16.30;14.27;;;;;;;19.22;87.42;101424.06;5053529;28;20025;-35
2021/09/26 09:15:56;;;;;;;18.85;15.55;;;;;;;19.34;87.39;101432.03;5054859;28;20025;-35
2021/09/26 09:18:23;;;;;;;14.98;13.48;;;;;;;19.45;86.17;101435.59;5054617;28;20108;-35
2021/09/26 09:20:48;;;;;;;16.52;14.60;;;;;;;19.36;85.50;101426.28;5053967;28;20377;-35
2021/09/26 09:23:17;;;;;;;;;;;;;;;19.50;87.29;101447.38;5054886;28;20125;-35
2021/09/26 09:25:55;;;;;;;15.23;13.70;;;;;;;19.30;86.65;101452.88;5054359;28;19912;-35
2021/09/26 09:28:25;;;;;;;15.80;14.20;;;;;;;19.21;86.27;101460.81;5054393;28;20244;-35
2021/09/26 09:30:52;;;;;;;17.63;15.75;;;;;;;19.11;86.46;101455.34;5053918;28;20050;-35
2021/09/26 09:33:19;;;;;;;20.55;16.05;;;;;;;19.20;86.97;101461.09;5054318;28;20024;-35
2021/09/26 09:35:48;;;;;;;17.27;15.15;;;;;;;19.20;86.46;101447.41;5054013;28;20028;-35
2021/09/26 09:38:38;;;;;;;17.40;15.50;;;;;;;19.26;86.29;101451.78;5054001;28;20142;-35
2021/09/26 09:41:04;;;;;;;17.73;15.93;;;;;;;19.34;85.29;101434.78;5053820;28;20069;-35
2021/09/26 09:43:29;;;;;;;;;;;;;;;19.61;86.73;101447.38;5054646;28;20135;-35
2021/09/26 09:45:58;;;;;;;21.08;16.02;;;;;;;19.75;84.04;101453.94;5053856;28;19996;-35
2021/09/26 09:48:30;;;;;;;17.98;16.17;;;;;;;19.87;83.99;101456.41;5053756;28;20476;-36
2021/09/26 09:51:06;;;;;;;20.42;16.15;;;;;;;20.01;82.44;101451.97;5053442;28;20496;-35
2021/09/26 09:53:42;;;;;;;19.60;17.00;;;;;;;20.11;81.32;101451.94;5053729;28;20032;-35
2021/09/26 09:56:22;;;;;;;16.93;15.07;;;;;;;20.20;81.05;101438.44;5053437;28;20024;-35
2021/09/26 09:58:58;;;;;;;17.73;15.90;;;;;;;20.26;80.34;101446.38;5053375;28;20017;-35
2021/09/26 10:01:31;;;;;;;16.17;14.25;;;;;;;20.33;79.62;101444.13;5052226;28;20032;-35
2021/09/26 10:04:04;;;;;;;18.77;15.50;;;;;;;20.48;79.52;101456.19;5054068;28;20429;-35
2021/09/26 10:06:43;;;;;;;18.05;15.55;;;;;;;20.62;79.75;101448.16;5054278;28;20060;-35
2021/09/26 10:09:21;;;;;;;17.13;14.23;;;;;;;20.71;78.98;101443.72;5053552;28;20170;-35
2021/09/26 10:11:59;;;;;;;16.20;14.48;;;;;;;20.73;77.53;101447.78;5053804;28;20024;-35
2021/09/26 10:14:35;;;;;;;15.98;14.27;;;;;;;20.81;77.49;101449.13;5053076;28;20461;-35
2021/09/26 10:17:04;;;;;;;15.10;13.52;;;;;;;20.83;76.09;101449.66;5053790;28;20393;-35
2021/09/26 10:19:32;;;;;;;16.55;14.18;;;;;;;20.88;76.23;101435.88;5053245;28;20123;-35
2021/09/26 10:22:02;;;;;;;16.40;14.77;;;;;;;20.99;76.80;101453.97;5053333;28;20100;-35
2021/09/26 10:24:32;;;;;;;15.43;13.90;;;;;;;20.98;76.34;101449.53;5052623;28;20028;-35
2021/09/26 10:27:01;;;;;;;15.85;14.35;;;;;;;21.05;75.39;101444.56;5053395;28;20044;-35
2021/09/26 10:29:33;;;;;;;16.20;14.40;;;;;;;21.14;75.07;101442.03;5053038;28;20025;-35
2021/09/26 10:32:01;;;;;;;17.67;14.52;;;;;;;21.20;75.07;101443.63;5052742;28;20419;-35
2021/09/26 10:34:27;;;;;;;15.50;13.90;;;;;;;21.32;75.08;101448.75;5052640;28;20025;-35
2021/09/26 10:36:53;;;;;;;14.75;13.25;;;;;;;21.54;74.45;101464.81;5053219;28;20035;-35
2021/09/26 10:39:19;;;;;;;15.43;13.50;;;;;;;21.54;73.67;101464.81;5052923;28;20068;-35
2021/09/26 10:42:09;;;;;;;16.13;14.32;;;;;;;21.63;75.65;101468.59;5053449;28;20031;-35
2021/09/26 10:44:53;;;;;;;16.83;14.68;;;;;;;21.75;74.72;101462.66;5052647;28;20105;-35
2021/09/26 10:47:19;;;;;;;16.10;14.40;;;;;;;21.80;72.83;101468.13;5053241;28;20070;-35
2021/09/26 10:49:49;;;;;;;15.30;13.77;;;;;;;21.77;72.49;101472.28;5053182;28;20037;-35
2021/09/26 10:52:34;;;;;;;15.45;13.73;;;;;;;21.85;73.29;101473.56;5051884;28;20029;-35
2021/09/26 10:55:14;;;;;;;15.93;14.27;;;;;;;21.91;73.61;101471.59;5053153;28;20078;-35
2021/09/26 10:57:44;;;;;;;16.02;13.85;;;;;;;21.99;72.92;101455.25;5053208;28;20060;-35
2021/09/26 11:00:14;;;;;;;17.70;14.55;;;;;;;21.94;70.85;101466.31;5053055;28;20112;-35
2021/09/26 11:02:45;;;;;;;14.82;13.30;;;;;;;21.92;71.31;101457.53;5053392;28;20024;-35
2021/09/26 11:05:34;;;;;;;16.10;14.05;;;;;;;22.14;72.13;101467.22;5052767;28;20028;-35
2021/09/26 11:08:01;;;;;;;16.13;14.43;;;;;;;22.08;70.72;101452.69;5052817;28;20017;-35
2021/09/26 11:10:39;;;;;;;28.65;15.02;;;;;;;22.10;69.85;101458.69;5052545;28;20059;-35
2021/09/26 11:13:09;;;;;;;17.02;14.50;;;;;;;22.08;70.25;101464.50;5053485;28;20353;-35
2021/09/26 11:15:57;;;;;;;15.77;14.25;;;;;;;22.16;70.74;101473.28;5053342;28;20021;-35
2021/09/26 11:18:58;;;;;;;15.75;14.05;;;;;;;22.23;70.95;101473.75;5052615;28;20472;-35